Latest Weather Observations for Hay Point

IDQ60801

Issued at 3:32 pm EST Sunday 26 February 2017 (issued every 30 minutes, with the page automatically refreshed every 10 minutes)

About weather observations | Map of weather stations | Latest weather observations for QLD | Other Formats
Station Details ID: 033317 Name: HAY POINT Lat: -21.29 Lon: 149.30 Height: 7.0 m
Data from the previous 72 hours. | See also: Recent months for locations in Queensland
Date/Time
EST
Temp
°C
App
Temp
°C
Dew
Point
°C
Rel
Hum
%
Delta-T
°C
Wind Press
QNH
hPa
Press
MSL
hPa
Rain since
9am
mm
Dir  Spd
km/h
Gust
km/h
Spd
kts
Gust
kts
26/03:00pm - - - - - ESE 22 30 12 16 - - -
26/02:30pm - - - - - SE 22 30 12 16 - - -
26/02:00pm - - - - - SE 26 35 14 19 - - -
26/01:30pm - - - - - SE 33 37 18 20 - - -
26/01:00pm - - - - - SE 30 37 16 20 - - -
26/12:30pm - - - - - SE 33 39 18 21 - - -
26/12:00pm - - - - - SE 32 44 17 24 - - -
26/11:30am - - - - - SE 33 39 18 21 - - -
26/11:00am - - - - - SSE 35 43 19 23 - - -
26/10:30am - - - - - SSE 33 39 18 21 - - -
26/10:00am - - - - - SE 33 39 18 21 - - -
26/09:30am - - - - - SE 33 41 18 22 - - -
26/09:00am - - - - - SE 32 41 17 22 - - -
26/08:30am - - - - - SE 32 41 17 22 - - -
26/08:00am - - - - - ESE 32 37 17 20 - - -
26/07:30am - - - - - ESE 28 35 15 19 - - -
26/07:00am - - - - - ESE 28 33 15 18 - - -
26/06:30am - - - - - ESE 30 37 16 20 - - -
26/06:00am - - - - - ESE 32 37 17 20 - - -
26/05:30am - - - - - ESE 33 39 18 21 - - -
26/05:00am - - - - - E 32 37 17 20 - - -
26/04:30am - - - - - E 32 37 17 20 - - -
26/04:00am - - - - - E 28 33 15 18 - - -
26/03:30am - - - - - E 32 41 17 22 - - -
26/03:00am - - - - - E 32 41 17 22 - - -
26/02:30am - - - - - ESE 32 37 17 20 - - -
26/02:00am - - - - - ESE 33 41 18 22 - - -
26/01:30am - - - - - ESE 33 39 18 21 - - -
26/01:00am - - - - - ESE 33 39 18 21 - - -
26/12:30am - - - - - ESE 32 37 17 20 - - -
26/12:00am - - - - - ESE 33 37 18 20 - - -
 
Date/Time
EST
Temp
°C
App
Temp
°C
Dew
Point
°C
Rel
Hum
%
Delta-T
°C
Wind Press
QNH
hPa
Press
MSL
hPa
Rain since
9am
mm
Dir  Spd
km/h
Gust
km/h
Spd
kts
Gust
kts
25/11:30pm - - - - - ESE 33 39 18 21 - - -
25/11:00pm - - - - - E 32 37 17 20 - - -
25/10:30pm - - - - - E 33 39 18 21 - - -
25/10:00pm - - - - - E 33 37 18 20 - - -
25/09:30pm - - - - - E 32 35 17 19 - - -
25/09:00pm - - - - - ESE 30 37 16 20 - - -
25/08:30pm - - - - - ESE 30 35 16 19 - - -
25/08:00pm - - - - - ESE 32 37 17 20 - - -
25/07:30pm - - - - - ESE 33 37 18 20 - - -
25/07:00pm - - - - - ESE 30 35 16 19 - - -
25/06:30pm - - - - - ESE 28 33 15 18 - - -
25/06:00pm - - - - - ESE 28 33 15 18 - - -
25/05:30pm - - - - - SE 22 32 12 17 - - -
25/05:00pm - - - - - ESE 26 32 14 17 - - -
25/04:30pm - - - - - SE 28 35 15 19 - - -
25/04:00pm - - - - - SE 24 33 13 18 - - -
25/03:30pm - - - - - SE 28 37 15 20 - - -
25/03:00pm - - - - - SE 24 35 13 19 - - -
25/02:30pm - - - - - SE 30 35 16 19 - - -
25/02:00pm - - - - - SE 28 35 15 19 - - -
25/01:30pm - - - - - SE 26 35 14 19 - - -
25/01:00pm - - - - - SE 28 37 15 20 - - -
25/12:30pm - - - - - SE 32 37 17 20 - - -
25/12:00pm - - - - - SE 32 39 17 21 - - -
25/11:30am - - - - - SE 32 37 17 20 - - -
25/11:00am - - - - - SE 32 37 17 20 - - -
25/10:30am - - - - - SE 28 35 15 19 - - -
25/10:00am - - - - - SE 30 37 16 20 - - -
25/09:30am - - - - - ESE 28 33 15 18 - - -
25/09:00am - - - - - SSE 17 22 9 12 - - -
25/08:30am - - - - - ESE 30 35 16 19 - - -
25/08:00am - - - - - ESE 26 35 14 19 - - -
25/07:30am - - - - - ESE 28 35 15 19 - - -
25/07:00am - - - - - ESE 24 32 13 17 - - -
25/06:30am - - - - - ESE 24 30 13 16 - - -
25/06:00am - - - - - ESE 26 30 14 16 - - -
25/05:30am - - - - - ESE 28 33 15 18 - - -
25/05:00am - - - - - ENE 28 39 15 21 - - -
25/04:30am - - - - - E 24 30 13 16 - - -
25/04:00am - - - - - E 24 28 13 15 - - -
25/03:30am - - - - - E 26 30 14 16 - - -
25/03:00am - - - - - E 28 32 15 17 - - -
25/02:30am - - - - - E 26 32 14 17 - - -
25/02:00am - - - - - E 26 32 14 17 - - -
25/01:30am - - - - - E 30 37 16 20 - - -
25/01:00am - - - - - E 26 32 14 17 - - -
25/12:30am - - - - - E 22 28 12 15 - - -
25/12:00am - - - - - E 24 28 13 15 - - -
 
Date/Time
EST
Temp
°C
App
Temp
°C
Dew
Point
°C
Rel
Hum
%
Delta-T
°C
Wind Press
QNH
hPa
Press
MSL
hPa
Rain since
9am
mm
Dir  Spd
km/h
Gust
km/h
Spd
kts
Gust
kts
24/11:30pm - - - - - ENE 24 30 13 16 - - -
24/11:00pm - - - - - ENE 24 30 13 16 - - -
24/10:30pm - - - - - E 24 28 13 15 - - -
24/10:00pm - - - - - E 24 30 13 16 - - -
24/09:30pm - - - - - ESE 28 32 15 17 - - -
24/09:00pm - - - - - ESE 24 30 13 16 - - -
24/08:30pm - - - - - ESE 24 30 13 16 - - -
24/08:00pm - - - - - E 28 32 15 17 - - -
24/07:30pm - - - - - ESE 26 32 14 17 - - -
24/07:00pm - - - - - ESE 20 28 11 15 - - -
24/06:30pm - - - - - E 17 26 9 14 - - -
24/06:00pm - - - - - E 28 46 15 25 - - -
24/05:30pm - - - - - ENE 33 37 18 20 - - -
24/05:00pm - - - - - E 26 32 14 17 - - -
24/04:30pm - - - - - SE 22 30 12 16 - - -
24/04:00pm - - - - - SE 20 28 11 15 - - -
24/03:30pm - - - - - SE 20 26 11 14 - - -
24/03:00pm - - - - - SE 24 30 13 16 - - -
24/02:30pm - - - - - SE 24 32 13 17 - - -
24/02:00pm - - - - - SE 26 35 14 19 - - -
24/01:30pm - - - - - SSE 30 35 16 19 - - -
24/01:00pm - - - - - SSE 20 32 11 17 - - -
24/12:30pm - - - - - SSE 26 37 14 20 - - -
24/12:00pm - - - - - SSE 35 44 19 24 - - -
24/11:30am - - - - - SSE 33 43 18 23 - - -
24/11:00am - - - - - SSE 30 39 16 21 - - -
24/10:30am - - - - - SE 41 50 22 27 - - -
24/10:00am - - - - - SE 37 44 20 24 - - -
24/09:33am - - - - - SE 41 52 22 28 - - -
24/09:30am - - - - - SE 41 52 22 28 - - -
24/09:00am - - - - - SE 39 48 21 26 - - -
24/08:30am - - - - - SSE 39 48 21 26 - - -
24/08:00am - - - - - SSE 32 41 17 22 - - -
24/07:30am - - - - - S 30 37 16 20 - - -
24/07:00am - - - - - S 22 28 12 15 - - -
24/06:30am - - - - - S 24 32 13 17 - - -
24/06:00am - - - - - S 24 33 13 18 - - -
24/05:30am - - - - - S 28 33 15 18 - - -
24/05:00am - - - - - S 22 28 12 15 - - -
24/04:30am - - - - - SSW 22 30 12 16 - - -
24/04:00am - - - - - S 22 28 12 15 - - -
24/03:30am - - - - - SE 32 39 17 21 - - -
24/03:00am - - - - - SE 26 33 14 18 - - -
24/02:30am - - - - - SE 28 35 15 19 - - -
24/02:00am - - - - - SE 26 33 14 18 - - -
24/01:30am - - - - - SE 24 30 13 16 - - -
24/01:00am - - - - - SE 24 30 13 16 - - -
24/12:30am - - - - - ESE 24 30 13 16 - - -
24/12:00am - - - - - SE 22 28 12 15 - - -
 
Date/Time
EST
Temp
°C
App
Temp
°C
Dew
Point
°C
Rel
Hum
%
Delta-T
°C
Wind Press
QNH
hPa
Press
MSL
hPa
Rain since
9am
mm
Dir  Spd
km/h
Gust
km/h
Spd
kts
Gust
kts
23/11:30pm - - - - - SE 22 32 12 17 - - -
23/11:00pm - - - - - ESE 26 32 14 17 - - -
23/10:30pm - - - - - SE 24 32 13 17 - - -
23/10:00pm - - - - - ESE 28 35 15 19 - - -
23/09:30pm - - - - - ESE 28 33 15 18 - - -
23/09:00pm - - - - - E 32 35 17 19 - - -
23/08:30pm - - - - - ESE 32 35 17 19 - - -
23/08:00pm - - - - - ESE 30 35 16 19 - - -
23/07:30pm - - - - - ESE 32 37 17 20 - - -
23/07:00pm - - - - - E 32 37 17 20 - - -
23/06:30pm - - - - - ESE 30 35 16 19 - - -
23/06:00pm - - - - - ESE 32 37 17 20 - - -
23/05:30pm - - - - - ESE 30 35 16 19 - - -
23/05:00pm - - - - - ESE 28 33 15 18 - - -
23/04:30pm - - - - - ESE 28 35 15 19 - - -
23/04:00pm - - - - - SE 24 32 13 17 - - -

Other Formats:

Comma delimited format used in spreadsheet applications
http://www.bom.gov.au/fwo/IDQ60801/IDQ60801.99367.axf

JavaScript Object Notation format (JSON) in row-major order
http://www.bom.gov.au/fwo/IDQ60801/IDQ60801.99367.json